createdAt,value
2023-02-15T00:00:12.145Z,61.72
2023-02-15T00:02:41.040Z,59.70
2023-02-15T00:05:09.927Z,60.35
2023-02-15T00:07:38.141Z,61.05
2023-02-15T00:10:08.442Z,59.20
2023-02-15T00:12:36.651Z,58.70
2023-02-15T00:15:04.416Z,57.25
2023-02-15T00:17:32.409Z,56.53
2023-02-15T00:20:00.346Z,58.00
2023-02-15T00:22:29.012Z,57.15
2023-02-15T00:24:57.059Z,59.45
2023-02-15T00:27:25.576Z,57.50
2023-02-15T00:29:53.180Z,54.97
2023-02-15T00:32:21.650Z,54.15
2023-02-15T00:34:49.762Z,58.22
2023-02-15T00:37:17.966Z,59.03
2023-02-15T00:39:48.516Z,54.28
2023-02-15T00:42:16.141Z,54.35
2023-02-15T00:44:44.562Z,57.35
2023-02-15T00:47:12.233Z,52.05
2023-02-15T00:49:40.145Z,54.97
2023-02-15T00:52:08.219Z,50.30
2023-02-15T00:54:39.700Z,52.33
2023-02-15T00:57:07.523Z,54.40
2023-02-15T00:59:35.124Z,51.13
2023-02-15T01:02:03.206Z,51.50
2023-02-15T01:04:31.852Z,47.35
2023-02-15T01:07:00.447Z,50.20
2023-02-15T01:09:28.482Z,47.83
2023-02-15T01:11:57.669Z,47.70
2023-02-15T01:14:27.657Z,47.40
2023-02-15T01:16:55.203Z,45.30
2023-02-15T01:19:23.328Z,46.65
2023-02-15T01:21:50.949Z,47.13
2023-02-15T01:24:19.328Z,47.00
2023-02-15T01:26:47.520Z,47.40
2023-02-15T01:29:15.610Z,48.05
2023-02-15T01:31:43.612Z,45.70
2023-02-15T01:34:11.172Z,44.85
2023-02-15T01:36:40.430Z,45.67
2023-02-15T01:39:09.069Z,44.38
2023-02-15T01:41:37.044Z,46.30
2023-02-15T01:44:05.433Z,45.35
2023-02-15T01:46:46.358Z,46.88
2023-02-15T01:49:20.826Z,50.33
2023-02-15T01:51:53.503Z,45.30
2023-02-15T01:54:33.819Z,48.35
2023-02-15T01:57:05.962Z,45.80
2023-02-15T01:59:36.220Z,46.83
2023-02-15T02:02:07.206Z,45.65
2023-02-15T02:04:50.449Z,45.55
2023-02-15T02:07:27.831Z,45.28
2023-02-15T02:09:56.372Z,44.47
2023-02-15T02:12:27.110Z,46.55
2023-02-15T02:14:55.796Z,47.53
2023-02-15T02:17:46.259Z,46.15
2023-02-15T02:20:29.578Z,44.97
2023-02-15T02:23:09.710Z,41.35
2023-02-15T02:25:56.297Z,44.33
2023-02-15T02:28:25.541Z,43.10
2023-02-15T02:30:56.544Z,42.67
2023-02-15T02:33:34.358Z,41.03
2023-02-15T02:36:17.953Z,42.13
2023-02-15T02:39:01.384Z,46.65
2023-02-15T02:42:03.949Z,47.20
2023-02-15T02:45:04.003Z,41.88
2023-02-15T02:47:48.974Z,41.95
2023-02-15T02:50:20.162Z,42.90
2023-02-15T02:52:50.158Z,38.53
2023-02-15T02:55:30.754Z,40.33
2023-02-15T02:58:04.262Z,39.85
2023-02-15T03:00:56.192Z,39.95
2023-02-15T03:03:43.417Z,38.67
2023-02-15T03:06:20.093Z,39.30
2023-02-15T03:08:52.512Z,40.15
2023-02-15T03:11:20.589Z,40.15
2023-02-15T03:13:50.539Z,41.22
2023-02-15T03:16:27.490Z,39.90
2023-02-15T03:18:58.897Z,38.83
2023-02-15T03:21:37.284Z,37.65
2023-02-15T03:24:16.094Z,38.17
2023-02-15T03:26:48.509Z,38.63
2023-02-15T03:29:21.029Z,39.17
2023-02-15T03:32:02.758Z,41.30
2023-02-15T03:34:31.369Z,39.35
2023-02-15T03:37:24.428Z,41.25
2023-02-15T03:40:23.161Z,42.03
2023-02-15T03:42:59.697Z,42.72
2023-02-15T03:45:31.995Z,43.47
2023-02-15T03:48:02.590Z,39.88
2023-02-15T03:50:56.320Z,41.25
2023-02-15T03:53:26.351Z,43.50
2023-02-15T03:55:57.314Z,45.08
2023-02-15T03:58:43.917Z,42.38
2023-02-15T04:01:46.159Z,42.95
2023-02-15T04:04:21.002Z,44.58
2023-02-15T04:06:49.058Z,42.10
2023-02-15T04:09:35.107Z,47.60
2023-02-15T04:12:03.258Z,47.92
2023-02-15T04:14:50.042Z,47.47
2023-02-15T04:17:17.621Z,46.10
2023-02-15T04:20:04.113Z,45.03
2023-02-15T04:22:50.826Z,44.40
2023-02-15T04:25:19.578Z,49.60
2023-02-15T04:27:53.939Z,46.03
2023-02-15T04:30:25.170Z,46.78
2023-02-15T04:32:56.070Z,47.55
2023-02-15T04:35:24.108Z,49.65
2023-02-15T04:37:51.867Z,49.53
2023-02-15T04:40:19.905Z,47.97
2023-02-15T04:42:51.206Z,46.25
2023-02-15T04:45:19.509Z,46.83
2023-02-15T04:47:47.616Z,45.60
2023-02-15T04:50:16.022Z,46.58
2023-02-15T04:52:43.596Z,46.13
2023-02-15T04:55:11.800Z,44.10
2023-02-15T04:57:39.341Z,47.88
2023-02-15T05:00:09.540Z,42.35
2023-02-15T05:02:37.882Z,43.67
2023-02-15T05:05:06.310Z,40.72
2023-02-15T05:07:34.442Z,43.08
2023-02-15T05:10:02.440Z,39.60
2023-02-15T05:12:30.482Z,40.25
2023-02-15T05:14:58.100Z,39.30
2023-02-15T05:17:26.516Z,39.75
2023-02-15T05:19:54.738Z,40.58
2023-02-15T05:22:22.502Z,38.50
2023-02-15T05:25:08.969Z,41.22
2023-02-15T05:27:56.045Z,38.00
2023-02-15T05:30:23.770Z,39.13
2023-02-15T05:32:51.686Z,40.65
2023-02-15T05:35:19.814Z,41.88
2023-02-15T05:37:47.870Z,36.40
2023-02-15T05:40:16.521Z,38.15
2023-02-15T05:42:44.920Z,40.85
2023-02-15T05:45:12.760Z,42.30
2023-02-15T05:47:41.335Z,40.95
2023-02-15T05:50:10.989Z,43.03
2023-02-15T05:52:38.622Z,42.92
2023-02-15T05:55:06.912Z,41.10
2023-02-15T05:57:34.855Z,40.40
2023-02-15T06:00:05.403Z,42.03
2023-02-15T06:02:40.569Z,43.67
2023-02-15T06:05:10.217Z,45.08
2023-02-15T06:07:38.218Z,42.15
2023-02-15T06:10:06.950Z,45.38
2023-02-15T06:12:34.905Z,45.50
2023-02-15T06:15:03.636Z,44.72
2023-02-15T06:17:31.454Z,43.75
2023-02-15T06:19:59.460Z,42.92
2023-02-15T06:22:27.083Z,45.78
2023-02-15T06:24:54.631Z,44.13
2023-02-15T06:27:22.625Z,48.17
2023-02-15T06:29:50.267Z,47.63
2023-02-15T06:32:18.223Z,45.60
2023-02-15T06:34:48.510Z,47.15
2023-02-15T06:37:16.293Z,47.30
2023-02-15T06:39:45.201Z,47.58
2023-02-15T06:42:13.370Z,47.13
2023-02-15T06:44:41.461Z,45.88
2023-02-15T06:47:09.416Z,48.38
2023-02-15T06:49:38.375Z,47.83
2023-02-15T06:52:07.352Z,50.13
2023-02-15T06:54:35.045Z,52.03
2023-02-15T06:57:02.952Z,52.63
2023-02-15T06:59:30.639Z,48.83
2023-02-15T07:01:58.641Z,54.20
2023-02-15T07:04:27.049Z,50.15
2023-02-15T07:06:54.725Z,52.55
2023-02-15T07:09:23.562Z,53.65
2023-02-15T07:12:09.931Z,49.20
2023-02-15T07:14:37.426Z,50.97
2023-02-15T07:17:11.669Z,50.72
2023-02-15T07:19:43.155Z,50.85
2023-02-15T07:22:11.171Z,51.05
2023-02-15T07:24:39.320Z,53.53
2023-02-15T07:27:11.416Z,51.05
2023-02-15T07:29:39.752Z,56.70
2023-02-15T07:32:08.203Z,54.92
2023-02-15T07:34:35.756Z,54.60
2023-02-15T07:37:03.371Z,53.38
2023-02-15T07:39:31.811Z,50.97
2023-02-15T07:42:01.460Z,48.92
2023-02-15T07:44:32.299Z,50.17
2023-02-15T07:47:00.295Z,49.60
2023-02-15T07:49:27.789Z,49.25
2023-02-15T07:51:55.339Z,45.80
2023-02-15T07:54:23.809Z,48.50
2023-02-15T07:56:52.153Z,45.45
2023-02-15T07:59:19.719Z,43.63
2023-02-15T08:01:47.598Z,45.55
2023-02-15T08:04:15.705Z,43.65
2023-02-15T08:06:43.262Z,45.15
2023-02-15T08:09:15.470Z,45.38
2023-02-15T08:11:43.807Z,44.42
2023-02-15T08:14:15.063Z,42.45
2023-02-15T08:16:51.076Z,43.63
2023-02-15T08:19:29.741Z,40.30
2023-02-15T08:22:06.337Z,42.97
2023-02-15T08:24:38.313Z,40.95
2023-02-15T08:27:07.845Z,39.20
2023-02-15T08:29:37.336Z,41.10
2023-02-15T08:32:07.824Z,39.65
2023-02-15T08:34:38.651Z,40.80
2023-02-15T08:37:07.163Z,39.72
2023-02-15T08:39:35.081Z,40.65
2023-02-15T08:42:03.274Z,40.22
2023-02-15T08:44:30.988Z,43.05
2023-02-15T08:47:04.634Z,47.85
2023-02-15T08:49:32.994Z,43.53
2023-02-15T08:52:01.653Z,47.50
2023-02-15T08:54:29.594Z,49.78
2023-02-15T08:56:57.302Z,47.42
2023-02-15T08:59:27.782Z,48.40
2023-02-15T09:01:56.415Z,47.63
2023-02-15T09:04:24.445Z,46.20
2023-02-15T09:06:53.247Z,46.03
2023-02-15T09:09:22.376Z,42.90
2023-02-15T09:11:58.576Z,44.13
2023-02-15T09:14:28.402Z,43.40
2023-02-15T09:16:56.185Z,45.38
2023-02-15T09:19:25.534Z,42.95
2023-02-15T09:21:54.375Z,39.97
2023-02-15T09:24:22.488Z,39.67
2023-02-15T09:26:51.528Z,42.25
2023-02-15T09:29:20.169Z,34.83
2023-02-15T09:31:51.185Z,33.72
2023-02-15T09:34:22.214Z,33.65
2023-02-15T09:36:51.317Z,31.05
2023-02-15T09:39:29.263Z,31.80
2023-02-15T09:42:12.931Z,34.03
2023-02-15T09:45:08.008Z,30.40
2023-02-15T09:48:07.117Z,30.60
2023-02-15T09:51:13.255Z,30.90
2023-02-15T09:53:47.445Z,34.47
2023-02-15T09:56:46.239Z,34.15
2023-02-15T09:59:16.961Z,30.55
2023-02-15T10:02:18.347Z,31.75
2023-02-15T10:05:01.396Z,32.72
2023-02-15T10:07:57.010Z,31.08
2023-02-15T10:10:47.259Z,30.50
2023-02-15T10:13:20.977Z,31.73
2023-02-15T10:16:00.280Z,32.00
2023-02-15T10:18:39.252Z,32.53
2023-02-15T10:22:00.827Z,34.63
2023-02-15T10:25:00.150Z,34.78
2023-02-15T10:27:39.443Z,35.97
2023-02-15T10:30:14.422Z,32.95
2023-02-15T10:33:05.111Z,33.85
2023-02-15T10:36:13.185Z,33.33
2023-02-15T10:38:54.863Z,34.38
2023-02-15T10:41:42.994Z,30.83
2023-02-15T10:44:39.576Z,32.35
2023-02-15T10:47:31.967Z,32.83
2023-02-15T10:50:39.190Z,30.88
2023-02-15T10:53:26.483Z,31.23
2023-02-15T10:56:02.592Z,29.98
2023-02-15T10:58:45.956Z,31.95
2023-02-15T11:01:37.419Z,32.55
2023-02-15T11:04:11.979Z,31.08
2023-02-15T11:06:46.623Z,33.60
2023-02-15T11:09:21.753Z,32.67
2023-02-15T11:11:53.993Z,33.17
2023-02-15T11:14:49.237Z,30.83
2023-02-15T11:17:25.782Z,32.97
2023-02-15T11:20:21.743Z,34.10
2023-02-15T11:22:54.363Z,33.83
2023-02-15T11:25:29.850Z,35.58
2023-02-15T11:27:58.310Z,34.78
2023-02-15T11:30:44.790Z,34.25
2023-02-15T11:33:36.414Z,34.22
2023-02-15T11:36:13.158Z,33.22
2023-02-15T11:38:44.401Z,33.28
2023-02-15T11:41:16.475Z,30.85
2023-02-15T11:44:05.028Z,35.05
2023-02-15T11:46:33.209Z,38.38
2023-02-15T11:49:00.874Z,35.78
2023-02-15T11:51:29.862Z,35.88
2023-02-15T11:53:57.461Z,37.33
2023-02-15T11:56:27.309Z,35.90
2023-02-15T11:59:08.309Z,34.38
2023-02-15T12:01:46.629Z,34.80
2023-02-15T12:04:32.889Z,33.90
2023-02-15T12:07:12.732Z,35.63
2023-02-15T12:10:08.054Z,33.10
2023-02-15T12:12:36.996Z,32.95
2023-02-15T12:15:08.131Z,31.98
2023-02-15T12:17:41.006Z,30.15
2023-02-15T12:20:29.765Z,30.75
2023-02-15T12:23:08.265Z,31.73
2023-02-15T12:25:54.625Z,32.47
2023-02-15T12:28:28.458Z,31.00
2023-02-15T12:30:58.856Z,32.15
2023-02-15T12:33:35.272Z,32.50
2023-02-15T12:36:19.268Z,33.42
2023-02-15T12:41:33.148Z,31.80
2023-02-15T12:44:20.815Z,30.95
2023-02-15T12:47:10.343Z,29.92
2023-02-15T12:49:39.490Z,28.02
2023-02-15T12:52:26.601Z,30.02
2023-02-15T12:54:54.696Z,29.63
2023-02-15T12:57:29.955Z,31.92
2023-02-15T13:00:26.265Z,31.58
2023-02-15T13:02:57.654Z,29.23
2023-02-15T13:05:39.759Z,29.17
2023-02-15T13:08:33.057Z,28.40
2023-02-15T13:11:10.394Z,29.70
2023-02-15T13:13:56.191Z,31.38
2023-02-15T13:16:40.897Z,30.10
2023-02-15T13:19:27.875Z,30.98
2023-02-15T13:21:58.691Z,28.13
2023-02-15T13:24:34.426Z,29.00
2023-02-15T13:27:15.033Z,29.70
2023-02-15T13:29:51.693Z,28.88
2023-02-15T13:32:38.117Z,26.27
2023-02-15T13:35:10.520Z,28.23
2023-02-15T13:37:56.448Z,28.98
2023-02-15T13:40:57.042Z,26.63
2023-02-15T13:43:30.340Z,30.35
2023-02-15T13:46:11.712Z,32.28
2023-02-15T13:49:06.399Z,25.08
2023-02-15T13:51:37.225Z,26.35
2023-02-15T13:54:29.050Z,25.20
2023-02-15T13:56:57.621Z,25.50
2023-02-15T13:59:50.315Z,29.60
2023-02-15T14:02:49.883Z,32.65
2023-02-15T14:05:27.087Z,31.55
2023-02-15T14:08:05.949Z,33.17
2023-02-15T14:10:51.008Z,33.17
2023-02-15T14:13:46.786Z,32.33
2023-02-15T14:16:43.028Z,32.75
2023-02-15T14:19:20.331Z,30.27
2023-02-15T14:21:52.075Z,33.53
2023-02-15T14:24:32.114Z,30.88
2023-02-15T14:27:12.173Z,34.22
2023-02-15T14:29:55.250Z,29.67
2023-02-15T14:32:36.836Z,29.73
2023-02-15T14:35:14.187Z,30.38
2023-02-15T14:37:52.662Z,28.65
2023-02-15T14:41:04.481Z,29.45
2023-02-15T14:43:53.735Z,31.55
2023-02-15T14:46:49.492Z,31.23
2023-02-15T14:49:23.286Z,28.50
2023-02-15T14:51:51.442Z,30.33
2023-02-15T14:54:18.942Z,30.80
2023-02-15T14:56:47.592Z,32.03
2023-02-15T14:59:19.529Z,30.42
2023-02-15T15:01:58.454Z,29.13
2023-02-15T15:04:49.052Z,33.35
2023-02-15T15:07:29.226Z,31.08
2023-02-15T15:10:04.185Z,31.10
2023-02-15T15:12:33.095Z,30.40
2023-02-15T15:15:02.316Z,32.15
2023-02-15T15:17:39.310Z,34.00
2023-02-15T15:20:26.540Z,31.63
2023-02-15T15:23:13.218Z,31.23
2023-02-15T15:26:18.395Z,29.58
2023-02-15T15:28:45.988Z,30.77
2023-02-15T15:31:35.104Z,32.40
2023-02-15T15:34:21.312Z,38.67
2023-02-15T15:37:20.717Z,34.10
2023-02-15T15:39:51.689Z,33.90
2023-02-15T15:42:56.130Z,33.70
2023-02-15T15:45:47.219Z,35.72
2023-02-15T15:48:33.522Z,34.97
2023-02-15T15:51:05.887Z,32.63
2023-02-15T15:53:43.265Z,35.95
2023-02-15T15:56:19.440Z,37.05
2023-02-15T15:58:53.523Z,37.58
2023-02-15T16:01:30.839Z,37.60
2023-02-15T16:04:00.207Z,38.08
2023-02-15T16:06:36.514Z,36.78
2023-02-15T16:09:29.555Z,37.63
2023-02-15T16:12:01.401Z,38.47
2023-02-15T16:14:37.776Z,39.40
2023-02-15T16:17:09.439Z,37.92
2023-02-15T16:19:42.257Z,37.45
2023-02-15T16:22:17.404Z,38.35
2023-02-15T16:25:02.531Z,38.63
2023-02-15T16:27:38.109Z,41.17
2023-02-15T16:30:24.598Z,43.03
2023-02-15T16:33:04.362Z,40.50
2023-02-15T16:35:33.263Z,45.72
2023-02-15T16:38:02.155Z,44.22
2023-02-15T16:41:04.492Z,45.67
2023-02-15T16:43:33.746Z,47.65
2023-02-15T16:46:13.021Z,46.30
2023-02-15T16:48:44.720Z,43.78
2023-02-15T16:51:21.674Z,46.42
2023-02-15T16:53:50.481Z,45.63
2023-02-15T16:56:25.275Z,54.70
2023-02-15T16:58:55.573Z,47.15
2023-02-15T17:01:26.769Z,50.42
2023-02-15T17:04:31.306Z,46.78
2023-02-15T17:07:18.008Z,42.70
2023-02-15T17:09:56.914Z,49.15
2023-02-15T17:12:47.891Z,50.17
2023-02-15T17:15:28.952Z,51.75
2023-02-15T17:18:13.270Z,48.55
2023-02-15T17:20:44.389Z,52.20
2023-02-15T17:23:33.430Z,50.92
2023-02-15T17:26:13.192Z,52.38
2023-02-15T17:28:49.169Z,50.38
2023-02-15T17:31:19.758Z,51.47
2023-02-15T17:33:49.375Z,52.55
2023-02-15T17:36:22.931Z,53.90
2023-02-15T17:39:03.869Z,59.72
2023-02-15T17:41:38.318Z,54.25
2023-02-15T17:44:08.609Z,54.80
2023-02-15T17:46:38.917Z,59.25
2023-02-15T17:49:07.538Z,57.92
2023-02-15T17:51:35.979Z,59.33
2023-02-15T17:54:23.452Z,60.78
2023-02-15T17:56:52.128Z,62.90
2023-02-15T17:59:20.512Z,62.47
2023-02-15T18:02:08.782Z,58.10
2023-02-15T18:04:56.447Z,59.42
2023-02-15T18:07:42.972Z,59.60
2023-02-15T18:10:35.334Z,57.90
2023-02-15T18:13:03.296Z,58.67
2023-02-15T18:15:31.542Z,58.75
2023-02-15T18:17:59.572Z,59.50
2023-02-15T18:20:34.907Z,58.28
2023-02-15T18:23:03.101Z,61.53
2023-02-15T18:25:31.147Z,59.20
2023-02-15T18:27:59.177Z,60.15
2023-02-15T18:30:28.111Z,57.70
2023-02-15T18:32:58.859Z,60.58
2023-02-15T18:35:31.039Z,56.88
2023-02-15T18:38:01.988Z,65.25
2023-02-15T18:40:29.769Z,64.18
2023-02-15T18:42:57.618Z,58.05
2023-02-15T18:45:32.466Z,61.60
2023-02-15T18:48:01.327Z,67.60
2023-02-15T18:50:34.303Z,60.03
2023-02-15T18:53:07.146Z,56.47
2023-02-15T18:55:35.624Z,65.38
2023-02-15T18:58:04.261Z,55.35
2023-02-15T19:00:35.074Z,55.00
2023-02-15T19:03:03.440Z,57.30
2023-02-15T19:05:33.315Z,54.17
2023-02-15T19:08:02.342Z,57.85
2023-02-15T19:10:32.598Z,59.85
2023-02-15T19:13:00.529Z,60.22
2023-02-15T19:15:30.613Z,65.95
2023-02-15T19:17:58.728Z,57.03
2023-02-15T19:20:30.679Z,62.15
2023-02-15T19:23:01.349Z,61.85
2023-02-15T19:25:32.780Z,56.70
2023-02-15T19:28:03.962Z,55.30
2023-02-15T19:30:33.210Z,54.22
2023-02-15T19:33:02.250Z,60.38
2023-02-15T19:35:35.325Z,58.58
2023-02-15T19:38:08.965Z,58.05
2023-02-15T19:40:37.230Z,53.72
2023-02-15T19:43:15.627Z,56.72
2023-02-15T19:45:45.369Z,57.50
2023-02-15T19:48:17.368Z,54.10
2023-02-15T19:50:47.122Z,57.42
2023-02-15T19:53:26.683Z,57.25
2023-02-15T19:55:55.444Z,56.08
2023-02-15T19:58:24.299Z,57.90
2023-02-15T20:00:52.270Z,57.17
2023-02-15T20:03:20.558Z,57.38
2023-02-15T20:05:48.438Z,57.25
2023-02-15T20:08:22.052Z,64.85
2023-02-15T20:10:49.854Z,58.80
2023-02-15T20:13:19.695Z,57.95
2023-02-15T20:15:50.922Z,56.10
2023-02-15T20:18:21.085Z,54.22
2023-02-15T20:20:53.242Z,57.88
2023-02-15T20:23:31.469Z,56.35
2023-02-15T20:26:01.357Z,54.30
2023-02-15T20:28:31.693Z,54.42
2023-02-15T20:31:00.106Z,54.45
2023-02-15T20:33:28.921Z,57.97
2023-02-15T20:35:57.503Z,55.90
2023-02-15T20:38:29.272Z,54.50
2023-02-15T20:41:18.162Z,59.17
2023-02-15T20:43:46.483Z,56.08
2023-02-15T20:46:14.644Z,55.95
2023-02-15T20:48:42.269Z,53.92
2023-02-15T20:51:18.486Z,54.38
2023-02-15T20:53:48.227Z,52.45
2023-02-15T20:56:21.359Z,54.05
2023-02-15T20:58:49.643Z,59.67
2023-02-15T21:01:20.030Z,62.10
2023-02-15T21:03:49.123Z,59.83
2023-02-15T21:06:18.284Z,56.22
2023-02-15T21:08:46.224Z,51.17
2023-02-15T21:11:22.786Z,54.65
2023-02-15T21:13:51.470Z,57.38
2023-02-15T21:16:20.259Z,55.67
2023-02-15T21:18:48.838Z,57.55
2023-02-15T21:21:23.807Z,54.13
2023-02-15T21:23:53.071Z,52.55
2023-02-15T21:26:23.421Z,54.25
2023-02-15T21:28:52.170Z,53.85
2023-02-15T21:31:25.650Z,56.83
2023-02-15T21:33:53.513Z,57.30
2023-02-15T21:36:24.460Z,57.03
2023-02-15T21:38:53.900Z,55.03
2023-02-15T21:41:42.845Z,59.88
2023-02-15T21:44:40.310Z,57.42
2023-02-15T21:47:48.642Z,59.75
2023-02-15T21:50:40.911Z,53.30
2023-02-15T21:53:12.996Z,54.95
2023-02-15T21:55:41.122Z,59.78
2023-02-15T21:58:19.543Z,53.95
2023-02-15T22:00:49.564Z,56.08
2023-02-15T22:03:17.394Z,56.83
2023-02-15T22:05:45.819Z,59.58
2023-02-15T22:08:14.415Z,59.70
2023-02-15T22:10:43.349Z,58.88
2023-02-15T22:13:26.415Z,58.15
2023-02-15T22:15:55.184Z,61.03
2023-02-15T22:18:28.907Z,60.10
2023-02-15T22:20:57.622Z,58.53
2023-02-15T22:23:25.973Z,59.13
2023-02-15T22:26:06.093Z,57.08
2023-02-15T22:28:37.063Z,56.08
2023-02-15T22:31:07.922Z,59.10
2023-02-15T22:33:36.023Z,58.33
2023-02-15T22:36:03.812Z,61.58
2023-02-15T22:38:31.402Z,56.17
2023-02-15T22:41:04.356Z,62.20
2023-02-15T22:43:39.134Z,56.45
2023-02-15T22:46:14.232Z,61.88
2023-02-15T22:48:43.832Z,57.25
2023-02-15T22:51:16.271Z,59.20
2023-02-15T22:53:44.364Z,58.78
2023-02-15T22:56:23.360Z,59.53
2023-02-15T22:58:51.761Z,57.63
2023-02-15T23:01:28.633Z,53.60
2023-02-15T23:03:56.827Z,58.60
2023-02-15T23:06:24.524Z,54.90
2023-02-15T23:08:54.861Z,55.17
2023-02-15T23:11:24.136Z,56.13
2023-02-15T23:13:51.672Z,57.03
2023-02-15T23:16:20.069Z,58.72
2023-02-15T23:18:49.303Z,67.82
2023-02-15T23:21:23.260Z,59.03
2023-02-15T23:26:31.168Z,52.55
2023-02-15T23:29:01.596Z,54.47
2023-02-15T23:31:35.121Z,57.15
2023-02-15T23:34:13.360Z,63.80
2023-02-15T23:36:41.020Z,57.10
2023-02-15T23:39:39.171Z,51.92
2023-02-15T23:42:11.566Z,51.95
2023-02-15T23:44:43.298Z,50.55
2023-02-15T23:47:45.068Z,50.65
2023-02-15T23:50:28.577Z,54.22
2023-02-15T23:52:57.500Z,51.97
2023-02-15T23:55:38.706Z,46.10
2023-02-15T23:58:12.176Z,42.88
